createdAt,value
2023-01-23T00:02:00.817Z,4.09
2023-01-23T00:07:07.109Z,4.48
2023-01-23T00:12:13.182Z,3.20
2023-01-23T00:17:19.467Z,4.25
2023-01-23T00:22:25.687Z,3.26
2023-01-23T00:27:31.920Z,3.37
2023-01-23T00:32:38.189Z,3.58
2023-01-23T00:37:44.468Z,4.08
2023-01-23T00:42:50.579Z,5.68
2023-01-23T00:47:56.843Z,3.14
2023-01-23T00:53:02.905Z,3.75
2023-01-23T00:58:09.174Z,3.87
2023-01-23T01:03:15.264Z,4.47
2023-01-23T01:08:22.504Z,4.06
2023-01-23T01:13:28.657Z,4.72
2023-01-23T01:18:34.934Z,3.23
2023-01-23T01:23:41.005Z,2.97
2023-01-23T01:28:47.254Z,3.89
2023-01-23T01:33:53.357Z,4.21
2023-01-23T01:38:59.595Z,2.61
2023-01-23T01:44:17.325Z,3.47
2023-01-23T01:49:23.495Z,2.90
2023-01-23T01:54:29.642Z,2.72
2023-01-23T01:59:35.848Z,5.57
2023-01-23T02:04:42.001Z,3.47
2023-01-23T02:09:48.141Z,3.01
2023-01-23T02:14:54.292Z,3.96
2023-01-23T02:20:00.506Z,3.08
2023-01-23T02:25:06.561Z,3.16
2023-01-23T02:30:12.763Z,3.38
2023-01-23T02:35:18.831Z,4.42
2023-01-23T02:40:25.148Z,4.32
2023-01-23T02:45:31.269Z,3.49
2023-01-23T02:50:37.529Z,3.32
2023-01-23T02:55:43.928Z,3.93
2023-01-23T03:00:50.275Z,3.37
2023-01-23T03:05:56.391Z,4.27
2023-01-23T03:11:02.676Z,4.20
2023-01-23T03:16:09.147Z,3.72
2023-01-23T03:21:15.258Z,3.90
2023-01-23T03:26:21.462Z,3.10
2023-01-23T03:31:28.484Z,3.14
2023-01-23T03:36:34.627Z,3.99
2023-01-23T03:41:40.815Z,2.70
2023-01-23T03:46:47.079Z,3.28
2023-01-23T03:51:53.665Z,4.23
2023-01-23T03:56:59.749Z,3.17
2023-01-23T04:02:06.055Z,2.76
2023-01-23T04:07:12.223Z,3.82
2023-01-23T04:12:18.449Z,2.79
2023-01-23T04:17:24.540Z,3.56
2023-01-23T04:22:31.161Z,2.86
2023-01-23T04:27:38.034Z,4.02
2023-01-23T04:32:44.290Z,3.11
2023-01-23T04:37:50.389Z,3.92
2023-01-23T04:42:57.426Z,3.38
2023-01-23T04:48:03.519Z,3.43
2023-01-23T04:53:09.741Z,4.09
2023-01-23T04:58:16.236Z,3.06
2023-01-23T05:03:22.425Z,2.88
2023-01-23T05:08:28.550Z,4.05
2023-01-23T05:13:34.731Z,3.01
2023-01-23T05:18:41.209Z,4.76
2023-01-23T05:23:47.457Z,3.45
2023-01-23T05:28:53.872Z,3.92
2023-01-23T05:34:00.140Z,4.03
2023-01-23T05:39:06.253Z,4.08
2023-01-23T05:44:12.587Z,4.48
2023-01-23T05:49:18.784Z,3.39
2023-01-23T05:54:25.020Z,3.67
2023-01-23T05:59:31.100Z,3.87
2023-01-23T06:04:37.403Z,3.44
2023-01-23T06:09:43.543Z,4.89
2023-01-23T06:14:49.756Z,3.70
2023-01-23T06:19:55.827Z,4.55
2023-01-23T06:25:02.051Z,4.20
2023-01-23T06:30:08.497Z,4.93
2023-01-23T06:35:15.091Z,4.49
2023-01-23T06:40:21.507Z,5.15
2023-01-23T06:45:26.820Z,4.64
2023-01-23T06:50:32.911Z,4.75
2023-01-23T06:55:39.044Z,5.87
2023-01-23T07:00:45.133Z,4.80
2023-01-23T07:05:51.324Z,5.39
2023-01-23T07:10:57.416Z,6.15
2023-01-23T07:16:03.674Z,6.81
2023-01-23T07:21:09.733Z,6.92
2023-01-23T07:26:15.897Z,6.46
2023-01-23T07:31:22.136Z,8.05
2023-01-23T07:36:28.152Z,7.53
2023-01-23T07:41:34.240Z,7.40
2023-01-23T07:46:40.423Z,7.18
2023-01-23T07:51:46.464Z,8.24
2023-01-23T07:56:52.627Z,8.14
2023-01-23T08:01:58.707Z,8.05
2023-01-23T08:07:04.871Z,7.77
2023-01-23T08:12:10.998Z,6.73
2023-01-23T08:17:17.207Z,7.59
2023-01-23T08:22:23.616Z,6.97
2023-01-23T08:27:29.892Z,7.16
2023-01-23T08:32:36.018Z,7.47
2023-01-23T08:37:42.317Z,7.99
2023-01-23T08:42:48.365Z,8.83
2023-01-23T08:47:54.548Z,6.99
2023-01-23T08:53:00.661Z,8.26
2023-01-23T08:58:06.839Z,8.68
2023-01-23T09:03:12.997Z,8.72
2023-01-23T09:08:19.232Z,8.88
2023-01-23T09:13:25.344Z,8.52
2023-01-23T09:18:31.489Z,7.94
2023-01-23T09:23:37.896Z,8.09
2023-01-23T09:28:44.162Z,10.59
2023-01-23T09:33:50.268Z,9.53
2023-01-23T09:38:56.487Z,9.64
2023-01-23T09:44:02.586Z,9.43
2023-01-23T09:49:08.728Z,10.30
2023-01-23T09:54:14.919Z,10.51
2023-01-23T09:59:21.273Z,9.50
2023-01-23T10:04:27.473Z,9.93
2023-01-23T10:09:33.690Z,9.14
2023-01-23T10:14:39.828Z,9.78
2023-01-23T10:19:46.178Z,9.07
2023-01-23T10:24:52.328Z,8.96
2023-01-23T10:29:58.619Z,8.69
2023-01-23T10:35:04.676Z,9.17
2023-01-23T10:40:10.915Z,9.61
2023-01-23T10:45:17.066Z,10.50
2023-01-23T10:50:23.215Z,10.30
2023-01-23T10:55:29.307Z,8.39
2023-01-23T11:00:35.905Z,9.56
2023-01-23T11:05:52.654Z,8.67
2023-01-23T11:10:47.760Z,9.55
2023-01-23T11:15:53.876Z,9.84
2023-01-23T11:21:00.062Z,8.90
2023-01-23T11:26:58.954Z,9.24
2023-01-23T11:32:05.400Z,9.21
2023-01-23T11:37:11.257Z,9.78
2023-01-23T11:42:17.433Z,8.44
2023-01-23T11:47:23.533Z,7.79
2023-01-23T11:52:29.750Z,9.83
2023-01-23T11:57:35.846Z,8.97
2023-01-23T12:02:42.036Z,8.57
2023-01-23T12:07:48.189Z,10.16
2023-01-23T12:12:54.386Z,11.58
2023-01-23T12:23:06.422Z,8.86
2023-01-23T12:28:56.220Z,8.95
2023-01-23T12:34:02.483Z,8.90
2023-01-23T12:39:08.686Z,8.89
2023-01-23T12:44:14.896Z,8.24
2023-01-23T12:49:21.446Z,8.72
2023-01-23T12:54:27.694Z,8.00
2023-01-23T12:59:33.776Z,7.64
2023-01-23T13:04:39.959Z,7.30
2023-01-23T13:09:46.049Z,7.35
2023-01-23T13:15:13.545Z,8.38
2023-01-23T13:19:57.914Z,8.06
2023-01-23T13:25:04.085Z,14.68
2023-01-23T13:30:10.171Z,8.66
2023-01-23T13:35:16.333Z,9.25
2023-01-23T13:40:22.403Z,8.74
2023-01-23T13:45:28.741Z,7.35
2023-01-23T13:50:34.692Z,8.20
2023-01-23T13:55:40.968Z,8.16
2023-01-23T14:00:47.190Z,7.96
2023-01-23T14:05:53.389Z,7.90
2023-01-23T14:10:59.467Z,8.16
2023-01-23T14:16:05.901Z,6.99
2023-01-23T14:21:13.148Z,7.43
2023-01-23T14:26:17.748Z,7.28
2023-01-23T14:31:23.912Z,6.60
2023-01-23T14:36:29.973Z,7.37
2023-01-23T14:41:38.279Z,8.18
2023-01-23T14:46:41.745Z,8.57
2023-01-23T14:51:47.888Z,8.71
2023-01-23T14:56:54.467Z,8.15
2023-01-23T15:02:03.313Z,8.88
2023-01-23T15:07:06.456Z,7.59
2023-01-23T15:12:12.523Z,8.20
2023-01-23T15:17:18.752Z,9.05
2023-01-23T15:22:25.185Z,9.23
2023-01-23T15:27:31.346Z,9.21
2023-01-23T15:32:37.524Z,8.76
2023-01-23T15:38:16.742Z,9.22
2023-01-23T15:43:22.899Z,8.07
2023-01-23T15:48:29.064Z,8.51
2023-01-23T15:53:35.255Z,7.51
2023-01-23T15:58:41.397Z,8.39
2023-01-23T16:03:47.515Z,8.05
2023-01-23T16:09:00.993Z,7.55
2023-01-23T16:13:59.359Z,7.86
2023-01-23T16:19:05.524Z,8.58
2023-01-23T16:24:11.683Z,8.95
2023-01-23T16:29:17.825Z,10.37
2023-01-23T16:34:23.915Z,8.74
2023-01-23T16:39:30.205Z,8.79
2023-01-23T16:44:36.377Z,10.67
2023-01-23T16:49:52.019Z,9.33
2023-01-23T16:54:48.199Z,9.78
2023-01-23T16:59:54.839Z,9.82
2023-01-23T17:05:01.561Z,8.33
2023-01-23T17:10:07.414Z,9.32
2023-01-23T17:15:13.559Z,8.85
2023-01-23T17:20:19.839Z,9.91
2023-01-23T17:25:25.997Z,10.77
2023-01-23T17:30:32.224Z,10.13
2023-01-23T17:35:38.382Z,10.60
2023-01-23T17:40:44.660Z,11.45
2023-01-23T17:45:50.838Z,10.71
2023-01-23T17:50:57.108Z,8.95
2023-01-23T17:56:03.172Z,10.56
2023-01-23T18:01:09.452Z,9.36
2023-01-23T18:06:16.635Z,10.59
2023-01-23T18:11:23.014Z,10.46
2023-01-23T18:16:29.145Z,9.78
2023-01-23T18:21:35.374Z,11.81
2023-01-23T18:26:41.477Z,10.66
2023-01-23T18:31:47.869Z,10.41
2023-01-23T18:36:53.864Z,9.81
2023-01-23T18:42:00.232Z,11.20
2023-01-23T18:47:06.579Z,12.13
2023-01-23T18:52:12.931Z,12.39
2023-01-23T18:57:19.307Z,12.09
2023-01-23T19:02:25.536Z,13.17
2023-01-23T19:07:32.670Z,12.22
2023-01-23T19:12:39.206Z,16.04
2023-01-23T19:17:45.273Z,14.65
2023-01-23T19:22:51.462Z,13.14
2023-01-23T19:27:58.655Z,14.42
2023-01-23T19:33:05.083Z,16.31
2023-01-23T19:38:11.159Z,14.21
2023-01-23T19:43:17.404Z,13.95
2023-01-23T19:48:23.576Z,14.74
2023-01-23T19:53:29.795Z,15.97
2023-01-23T19:58:36.222Z,15.31
2023-01-23T20:03:42.483Z,14.35
2023-01-23T20:08:48.605Z,16.83
2023-01-23T20:13:54.913Z,16.15
2023-01-23T20:19:01.294Z,16.14
2023-01-23T20:24:08.350Z,16.28
2023-01-23T20:29:13.385Z,16.15
2023-01-23T20:34:19.670Z,16.11
2023-01-23T20:39:28.341Z,27.39
2023-01-23T20:44:34.612Z,17.44
2023-01-23T20:49:40.746Z,15.55
2023-01-23T20:54:47.167Z,15.89
2023-01-23T20:59:53.402Z,16.35
2023-01-23T21:04:59.592Z,14.67
2023-01-23T21:10:05.820Z,15.29
2023-01-23T21:15:12.098Z,15.92
2023-01-23T21:20:18.482Z,15.93
2023-01-23T21:25:24.728Z,15.18
2023-01-23T21:30:30.949Z,16.34
2023-01-23T21:35:37.077Z,16.67
2023-01-23T21:40:43.153Z,15.77
2023-01-23T21:45:49.454Z,16.53
2023-01-23T21:50:55.617Z,16.04
2023-01-23T21:56:01.873Z,16.29
2023-01-23T22:01:07.998Z,16.53
2023-01-23T22:06:14.172Z,16.73
2023-01-23T22:11:20.351Z,16.58
2023-01-23T22:16:46.403Z,16.56
2023-01-23T22:21:32.279Z,15.19
2023-01-23T22:26:38.498Z,15.43
2023-01-23T22:31:44.771Z,14.94
2023-01-23T22:36:50.887Z,15.89
2023-01-23T22:41:57.029Z,15.10
2023-01-23T22:47:03.609Z,15.17
2023-01-23T22:52:09.719Z,15.34
2023-01-23T22:57:15.896Z,15.69
2023-01-23T23:02:22.074Z,16.50
2023-01-23T23:07:28.358Z,15.39
2023-01-23T23:12:34.639Z,15.92
2023-01-23T23:17:40.964Z,15.47
2023-01-23T23:22:48.003Z,17.21
2023-01-23T23:27:54.338Z,14.72
2023-01-23T23:33:00.427Z,29.17
2023-01-23T23:38:06.609Z,16.21
2023-01-23T23:43:12.737Z,16.62
2023-01-23T23:48:18.967Z,17.84
2023-01-23T23:53:25.048Z,18.57
2023-01-23T23:58:31.397Z,15.12
